Time;durP1;ratioP1;P1;durP2;ratioP2;P2;SDS_P1;SDS_P2;PMS_P1;PMS_P2;Temp;Humidity;BMP_temperature;BMP_pressure;BME280_temperature;BME280_humidity;BME280_pressure;Samples;Min_cycle;Max_cycle;Signal;HPM_P1;HPM_P2
2021/09/28 00:01:35;;;;;;;10.55;4.98;;;;;;;12.09;69.34;100304.12;254526;1107;115424;-68
2021/09/28 00:06:44;;;;;;;6.05;4.73;;;;;;;12.06;69.69;100305.39;253549;1107;116442;-67
2021/09/28 00:11:50;;;;;;;6.32;4.48;;;;;;;12.02;69.71;100303.41;254878;1107;115314;-69
2021/09/28 00:16:54;;;;;;;7.45;4.63;;;;;;;11.93;70.06;100315.46;255224;1107;114899;-67
2021/09/28 00:22:01;;;;;;;5.33;4.58;;;;;;;11.90;70.10;100315.95;255127;1107;117218;-68
2021/09/28 00:27:08;;;;;;;9.45;5.30;;;;;;;11.86;70.23;100309.43;254214;1107;119731;-67
2021/09/28 00:32:11;;;;;;;7.98;5.15;;;;;;;11.84;69.97;100314.19;255819;1107;117551;-70
2021/09/28 00:37:20;;;;;;;13.53;5.85;;;;;;;11.79;70.20;100304.99;256299;1107;115550;-71
2021/09/28 00:42:23;;;;;;;4.75;4.33;;;;;;;11.76;70.42;100309.95;256286;1106;116079;-71
2021/09/28 00:47:29;;;;;;;8.50;5.24;;;;;;;11.71;70.62;100310.63;255727;1106;115693;-70
2021/09/28 00:52:34;;;;;;;10.10;5.95;;;;;;;11.69;70.35;100311.89;254619;1107;114885;-70
2021/09/28 00:57:39;;;;;;;6.03;4.60;;;;;;;11.65;70.39;100308.86;255535;1107;115949;-71
2021/09/28 01:02:44;;;;;;;6.68;5.18;;;;;;;11.61;70.39;100318.39;254321;1107;115052;-70
2021/09/28 01:07:48;;;;;;;4.83;4.20;;;;;;;11.52;70.49;100325.08;253255;1103;115113;-70
2021/09/28 01:12:52;;;;;;;5.28;4.78;;;;;;;11.42;70.18;100320.27;254757;1103;115169;-70
2021/09/28 01:17:55;;;;;;;7.90;5.23;;;;;;;11.38;70.57;100312.94;253168;1107;117163;-70
2021/09/28 01:22:59;;;;;;;5.48;4.15;;;;;;;11.36;70.80;100309.68;253139;1100;115610;-70
2021/09/28 01:28:03;;;;;;;8.95;4.23;;;;;;;11.31;70.99;100313.02;253530;1101;116062;-69
2021/09/28 01:33:08;;;;;;;7.10;6.15;;;;;;;11.25;70.95;100310.46;253443;1107;116193;-70
2021/09/28 01:38:11;;;;;;;5.30;4.63;;;;;;;11.20;70.93;100305.80;254173;1107;116032;-68
2021/09/28 01:43:15;;;;;;;10.65;4.40;;;;;;;11.19;71.14;100311.35;253209;1107;116507;-69
2021/09/28 01:48:19;;;;;;;6.80;4.83;;;;;;;11.17;71.42;100308.91;253377;1107;116481;-69
2021/09/28 01:53:23;;;;;;;7.00;3.93;;;;;;;11.13;71.65;100307.72;253268;1107;115884;-70
2021/09/28 01:58:27;;;;;;;7.15;4.23;;;;;;;11.07;71.27;100313.95;254416;1107;115584;-68
2021/09/28 02:03:31;;;;;;;6.38;4.58;;;;;;;11.02;71.31;100313.80;253915;1107;115283;-68
2021/09/28 02:08:34;;;;;;;8.30;4.55;;;;;;;10.99;71.21;100320.42;253269;1107;116938;-69
2021/09/28 02:13:39;;;;;;;9.18;5.40;;;;;;;10.97;71.35;100322.50;253824;1107;115754;-68
2021/09/28 02:18:41;;;;;;;7.23;4.68;;;;;;;10.91;71.42;100325.23;253520;1106;116280;-68
2021/09/28 02:23:46;;;;;;;8.05;4.73;;;;;;;10.80;71.69;100324.11;253398;1103;115981;-69
2021/09/28 02:28:50;;;;;;;7.78;4.90;;;;;;;10.78;71.59;100315.52;254164;1107;116473;-68
2021/09/28 02:33:56;;;;;;;9.13;4.58;;;;;;;10.76;71.98;100318.40;253847;1107;116030;-68
2021/09/28 02:39:00;;;;;;;5.05;4.58;;;;;;;10.68;71.57;100316.05;253560;1107;115919;-69
2021/09/28 02:44:05;;;;;;;11.30;4.73;;;;;;;10.62;71.62;100308.11;254539;1107;115972;-69
2021/09/28 02:49:09;;;;;;;5.57;4.10;;;;;;;10.57;71.80;100315.95;253386;1103;115996;-69
2021/09/28 02:54:12;;;;;;;6.48;4.95;;;;;;;10.52;71.93;100313.13;253548;1106;115820;-69
2021/09/28 02:59:16;;;;;;;6.40;4.67;;;;;;;10.51;72.90;100317.64;253869;1107;116133;-68
2021/09/28 03:04:19;;;;;;;4.38;3.98;;;;;;;10.48;72.18;100311.93;253504;1107;116375;-71
2021/09/28 03:09:23;;;;;;;6.43;4.23;;;;;;;10.42;72.32;100317.09;253733;1107;115728;-68
2021/09/28 03:14:27;;;;;;;5.25;4.70;;;;;;;10.38;72.08;100313.27;254670;1107;115872;-67
2021/09/28 03:19:31;;;;;;;4.97;4.20;;;;;;;10.35;72.63;100305.70;254250;1107;116048;-68
2021/09/28 03:24:35;;;;;;;6.60;4.58;;;;;;;10.31;72.15;100319.69;253670;1107;116658;-68
2021/09/28 03:29:40;;;;;;;4.33;3.93;;;;;;;10.18;72.67;100325.90;253930;1107;206046;-68
2021/09/28 03:34:44;;;;;;;5.93;4.68;;;;;;;10.09;72.78;100327.19;253523;1107;115529;-69
2021/09/28 03:39:46;;;;;;;6.43;4.28;;;;;;;10.08;72.78;100344.23;253872;1106;114803;-68
2021/09/28 03:44:53;;;;;;;12.90;5.20;;;;;;;10.01;72.61;100346.94;254312;1107;116250;-68
2021/09/28 03:49:57;;;;;;;5.50;4.58;;;;;;;9.95;72.57;100345.14;254221;1107;115474;-69
2021/09/28 03:54:59;;;;;;;8.88;6.18;;;;;;;9.89;73.15;100345.99;253450;1107;115369;-69
2021/09/28 04:00:05;;;;;;;11.23;5.35;;;;;;;9.83;72.84;100346.03;253336;1107;115520;-69
2021/09/28 04:05:08;;;;;;;6.13;4.73;;;;;;;9.78;73.11;100344.82;253214;1107;114886;-70
2021/09/28 04:10:11;;;;;;;6.10;4.83;;;;;;;9.71;72.99;100349.39;253319;1107;115230;-71
2021/09/28 04:15:14;;;;;;;5.28;4.78;;;;;;;9.63;73.44;100357.63;254011;1107;115004;-69
2021/09/28 04:20:18;;;;;;;5.90;4.85;;;;;;;9.55;73.42;100368.51;253453;1107;115205;-67
2021/09/28 04:25:30;;;;;;;6.28;5.20;;;;;;;9.53;73.16;100362.58;254009;1107;114935;-68
2021/09/28 04:30:33;;;;;;;6.50;5.53;;;;;;;9.57;73.57;100360.31;256297;1106;115463;-68
2021/09/28 04:35:37;;;;;;;8.43;5.48;;;;;;;9.60;73.36;100366.03;253493;1107;115127;-67
2021/09/28 04:40:41;;;;;;;7.25;5.55;;;;;;;9.58;74.05;100365.42;256093;1106;115715;-67
2021/09/28 04:45:44;;;;;;;7.15;5.83;;;;;;;9.58;73.31;100370.75;256432;1106;115846;-67
2021/09/28 04:50:49;;;;;;;6.03;5.33;;;;;;;9.61;73.38;100372.98;256001;1106;115303;-67
2021/09/28 04:55:55;;;;;;;8.53;5.75;;;;;;;9.64;73.59;100377.89;254926;1107;114782;-69
2021/09/28 05:00:58;;;;;;;7.20;5.78;;;;;;;9.66;74.27;100385.66;253413;1107;114621;-69
2021/09/28 05:06:02;;;;;;;8.60;5.40;;;;;;;9.73;73.83;100395.26;254688;1107;115064;-69
2021/09/28 05:11:05;;;;;;;6.40;5.65;;;;;;;9.77;73.40;100395.66;253848;1107;115530;-70
2021/09/28 05:16:12;;;;;;;5.33;4.78;;;;;;;9.80;73.92;100398.67;254238;1107;115362;-70
2021/09/28 05:21:17;;;;;;;6.53;5.05;;;;;;;9.84;73.64;100411.56;254474;1103;115554;-68
2021/09/28 05:26:24;;;;;;;5.78;5.20;;;;;;;9.87;73.95;100403.97;253394;1102;115646;-68
2021/09/28 05:31:31;;;;;;;7.83;5.57;;;;;;;9.97;73.95;100412.32;254511;1106;116098;-66
2021/09/28 05:36:34;;;;;;;6.30;5.20;;;;;;;10.10;74.05;100414.06;253395;1107;115462;-69
2021/09/28 05:41:38;;;;;;;5.68;5.03;;;;;;;10.20;73.79;100416.30;253316;1107;115638;-69
2021/09/28 05:46:41;;;;;;;7.20;5.05;;;;;;;10.29;74.18;100421.16;253896;1106;115285;-68
2021/09/28 05:51:52;;;;;;;7.05;5.43;;;;;;;10.36;74.00;100427.27;253927;1106;115382;-68
2021/09/28 05:56:56;;;;;;;5.78;4.90;;;;;;;10.48;74.21;100434.54;253804;1107;115308;-66
2021/09/28 06:01:58;;;;;;;8.50;4.65;;;;;;;10.62;74.14;100428.09;253967;1107;115110;-66
2021/09/28 06:07:02;;;;;;;7.00;6.13;;;;;;;10.78;74.21;100446.19;254128;1107;118189;-69
2021/09/28 06:12:07;;;;;;;9.03;5.00;;;;;;;10.91;73.78;100435.41;253156;1107;116062;-67
2021/09/28 06:17:10;;;;;;;14.03;6.10;;;;;;;11.05;74.01;100442.23;254933;1106;115713;-67
2021/09/28 06:22:14;;;;;;;5.88;4.83;;;;;;;11.21;73.68;100453.38;254328;1107;115907;-67
2021/09/28 06:27:17;;;;;;;9.65;4.93;;;;;;;11.36;73.74;100453.81;255417;1107;116085;-68
2021/09/28 06:32:22;;;;;;;4.10;3.63;;;;;;;11.53;73.85;100454.88;253680;1107;116065;-68
2021/09/28 06:37:26;;;;;;;6.23;5.28;;;;;;;11.72;73.54;100461.00;254757;1107;116509;-68
2021/09/28 06:42:30;;;;;;;8.50;5.58;;;;;;;11.99;72.96;100464.99;253737;1107;116229;-68
2021/09/28 06:47:34;;;;;;;5.80;5.20;;;;;;;12.28;72.90;100468.70;256190;1107;115763;-67
2021/09/28 06:52:38;;;;;;;9.68;5.45;;;;;;;12.58;73.21;100467.84;256187;1106;115326;-68
2021/09/28 06:57:42;;;;;;;7.97;4.60;;;;;;;12.89;72.59;100470.20;255088;1107;117263;-68
2021/09/28 07:02:46;;;;;;;8.73;5.13;;;;;;;13.15;71.95;100480.48;255069;1101;117267;-66
2021/09/28 07:07:50;;;;;;;6.13;4.35;;;;;;;13.54;71.97;100483.47;253718;1103;117190;-68
2021/09/28 07:12:55;;;;;;;5.68;4.18;;;;;;;13.78;71.37;100481.55;253278;1106;116157;-68
2021/09/28 07:17:58;;;;;;;8.50;3.90;;;;;;;13.88;70.91;100483.63;254290;1107;115963;-69
2021/09/28 07:23:05;;;;;;;8.37;5.63;;;;;;;13.90;70.72;100476.16;253995;1107;115748;-69
2021/09/28 07:28:09;;;;;;;10.18;5.20;;;;;;;13.95;70.94;100481.63;253821;1106;116939;-69
2021/09/28 07:33:18;;;;;;;7.25;4.45;;;;;;;13.99;69.95;100485.45;253246;1107;116641;-68
2021/09/28 07:38:23;;;;;;;6.28;4.78;;;;;;;13.95;70.01;100479.76;253508;1107;116551;-68
2021/09/28 07:43:27;;;;;;;7.37;4.87;;;;;;;13.92;69.26;100495.50;254213;1107;116636;-67
2021/09/28 07:48:32;;;;;;;8.83;5.30;;;;;;;13.90;69.25;100492.23;253618;1107;115861;-68
2021/09/28 07:53:35;;;;;;;4.90;4.50;;;;;;;13.97;69.68;100492.92;253675;1107;115867;-68
2021/09/28 07:58:38;;;;;;;6.48;4.05;;;;;;;14.12;69.61;100491.33;253440;1107;115987;-69
2021/09/28 08:03:43;;;;;;;4.75;4.05;;;;;;;14.30;69.43;100495.70;254093;1107;116423;-70
2021/09/28 08:08:47;;;;;;;9.05;4.63;;;;;;;14.44;69.66;100499.73;253995;1107;116189;-70
2021/09/28 08:13:51;;;;;;;11.98;4.93;;;;;;;14.65;69.40;100500.91;253261;1107;115962;-70
2021/09/28 08:18:55;;;;;;;7.20;4.80;;;;;;;14.81;68.46;100505.46;253814;1107;116686;-71
2021/09/28 08:24:00;;;;;;;9.40;5.43;;;;;;;14.96;68.51;100502.22;254018;1107;115992;-70
2021/09/28 08:29:09;;;;;;;7.68;4.65;;;;;;;15.20;68.31;100502.03;254513;1102;115996;-71
2021/09/28 08:34:19;;;;;;;8.65;5.53;;;;;;;15.53;68.34;100510.03;254401;1107;115976;-71
2021/09/28 08:39:23;;;;;;;5.58;5.08;;;;;;;15.76;67.51;100507.13;254620;1101;116614;-71
2021/09/28 08:44:28;;;;;;;8.10;3.85;;;;;;;15.93;67.70;100506.23;255842;1107;116019;-70
2021/09/28 08:49:32;;;;;;;6.18;5.05;;;;;;;16.31;68.13;100497.25;255573;1107;115569;-70
2021/09/28 08:54:37;;;;;;;5.55;4.93;;;;;;;16.76;66.67;100500.41;254980;1107;115654;-70
2021/09/28 08:59:49;;;;;;;6.03;4.38;;;;;;;16.99;66.73;100503.80;256104;1106;115660;-70
2021/09/28 09:05:04;;;;;;;7.00;5.08;;;;;;;17.17;65.85;100506.88;254659;1106;115162;-71
2021/09/28 09:10:10;;;;;;;7.80;4.85;;;;;;;17.42;64.91;100508.14;255182;1105;116336;-69
2021/09/28 09:15:35;;;;;;;12.48;6.10;;;;;;;17.65;64.47;100504.23;253574;1107;115062;-68
2021/09/28 09:20:42;;;;;;;7.48;5.45;;;;;;;17.91;63.82;100505.15;254973;1107;115582;-69
2021/09/28 09:25:47;;;;;;;6.03;4.75;;;;;;;18.17;63.09;100506.84;254088;1106;115305;-69
2021/09/28 09:30:52;;;;;;;25.23;5.83;;;;;;;18.41;62.58;100507.16;253575;1101;115234;-68
2021/09/28 09:35:58;;;;;;;10.30;6.26;;;;;;;18.64;61.73;100492.39;253930;1107;115582;-68
2021/09/28 09:41:04;;;;;;;6.40;4.25;;;;;;;18.88;61.49;100493.46;252938;1107;115182;-71
2021/09/28 09:46:13;;;;;;;7.78;5.08;;;;;;;19.03;61.03;100501.53;253514;1107;115848;-71
2021/09/28 09:51:20;;;;;;;17.50;5.53;;;;;;;18.94;60.12;100508.59;253168;1107;115420;-70
2021/09/28 09:56:44;;;;;;;5.35;4.20;;;;;;;18.94;59.75;100518.59;253339;1107;115848;-70
2021/09/28 10:01:50;;;;;;;5.23;4.73;;;;;;;18.86;59.22;100513.72;253355;1107;115935;-70
2021/09/28 10:06:55;;;;;;;18.00;4.48;;;;;;;18.88;59.03;100520.47;253348;1107;115175;-70
2021/09/28 10:12:04;;;;;;;4.68;3.85;;;;;;;19.07;59.02;100518.83;253292;1107;115752;-71
2021/09/28 10:17:36;;;;;;;3.85;2.75;;;;;;;19.27;58.88;100512.58;253117;1107;115813;-71
2021/09/28 10:22:50;;;;;;;14.30;4.73;;;;;;;19.52;58.44;100525.28;254283;1103;114940;-70
2021/09/28 10:28:05;;;;;;;7.83;3.23;;;;;;;19.64;57.94;100511.44;253631;1107;115764;-71
2021/09/28 10:33:14;;;;;;;5.90;4.53;;;;;;;19.43;57.21;100526.89;253175;1107;114949;-71
2021/09/28 10:38:25;;;;;;;8.23;3.75;;;;;;;19.28;57.20;100525.02;254014;1106;116121;-70
2021/09/28 10:43:31;;;;;;;5.10;3.65;;;;;;;19.35;57.61;100522.03;255233;1107;117752;-71
2021/09/28 10:48:38;;;;;;;4.18;3.85;;;;;;;19.44;57.54;100525.80;256318;1107;115602;-71
2021/09/28 10:53:50;;;;;;;6.53;3.70;;;;;;;19.69;56.79;100524.95;256152;1106;115719;-70
2021/09/28 10:59:03;;;;;;;4.80;3.30;;;;;;;19.82;56.78;100522.48;256124;1107;115556;-71
2021/09/28 11:04:15;;;;;;;7.68;3.65;;;;;;;19.95;56.41;100512.13;254854;1107;116015;-70
2021/09/28 11:09:26;;;;;;;5.45;3.30;;;;;;;19.93;55.51;100517.81;255423;1107;115157;-69
2021/09/28 11:14:38;;;;;;;7.38;4.43;;;;;;;19.98;55.93;100522.39;255027;1107;115395;-69
2021/09/28 11:19:43;;;;;;;10.48;5.13;;;;;;;20.11;55.63;100519.09;253425;1107;174513;-71
2021/09/28 11:24:48;;;;;;;6.70;3.93;;;;;;;20.23;55.59;100518.74;254360;1107;115378;-70
2021/09/28 11:29:54;;;;;;;4.33;3.87;;;;;;;20.31;54.77;100518.97;253346;1107;115045;-71
2021/09/28 11:34:58;;;;;;;;;;;;;;;20.33;54.99;100516.80;253347;1106;115305;-72
2021/09/28 11:40:01;;;;;;;3.55;3.15;;;;;;;20.27;54.99;100515.20;254301;1106;103097;-71
2021/09/28 11:45:06;;;;;;;2.73;2.53;;;;;;;20.18;55.32;100514.16;253219;1102;114766;-70
2021/09/28 11:50:11;;;;;;;3.13;2.88;;;;;;;20.08;54.53;100511.53;253792;1102;114744;-69
2021/09/28 11:55:24;;;;;;;3.47;3.17;;;;;;;20.05;55.15;100518.30;253848;1107;115370;-69
2021/09/28 12:00:30;;;;;;;7.55;5.48;;;;;;;20.00;54.64;100521.03;253565;1106;115584;-69
2021/09/28 12:11:12;;;;;;;6.88;3.55;;;;;;;19.63;54.48;100505.22;253270;1101;115706;-69
2021/09/28 12:16:22;;;;;;;4.83;2.98;;;;;;;19.56;54.54;100512.84;254237;1106;116223;-69
2021/09/28 12:21:27;;;;;;;8.45;3.03;;;;;;;19.61;55.11;100512.80;254683;1107;115778;-69
2021/09/28 12:26:32;;;;;;;3.67;2.67;;;;;;;19.67;54.77;100508.99;253992;1107;115964;-69
2021/09/28 12:31:41;;;;;;;17.85;7.55;;;;;;;19.65;54.86;100513.87;254438;1107;116029;-69
2021/09/28 12:36:45;;;;;;;4.77;3.47;;;;;;;19.54;54.97;100511.48;253418;1101;117415;-68
2021/09/28 12:42:09;;;;;;;16.03;4.35;;;;;;;19.32;55.23;100509.06;253370;1107;116707;-71
2021/09/28 12:47:30;;;;;;;5.68;2.73;;;;;;;19.10;55.10;100510.19;253929;1107;116442;-69
2021/09/28 12:52:34;;;;;;;5.70;3.35;;;;;;;18.89;55.47;100507.78;254629;1107;115785;-69
2021/09/28 12:57:44;;;;;;;3.98;2.70;;;;;;;18.72;55.77;100519.64;256283;1107;116454;-69
2021/09/28 13:02:49;;;;;;;9.13;4.88;;;;;;;18.67;56.17;100516.13;256179;1107;115832;-69
2021/09/28 13:07:55;;;;;;;8.75;3.93;;;;;;;18.63;56.25;100515.88;253555;1107;116979;-69
2021/09/28 13:12:59;;;;;;;3.53;2.60;;;;;;;18.60;56.48;100521.00;254389;1107;115625;-70
2021/09/28 13:18:03;;;;;;;3.25;2.75;;;;;;;18.64;56.95;100524.79;253623;1107;118056;-70
2021/09/28 13:23:18;;;;;;;4.20;2.20;;;;;;;18.66;56.98;100519.91;253293;1107;116269;-71
2021/09/28 13:28:21;;;;;;;5.85;3.43;;;;;;;18.62;56.52;100537.75;254407;1106;115870;-69
2021/09/28 13:33:27;;;;;;;3.40;2.85;;;;;;;18.63;56.67;100531.27;253187;1107;116782;-72
2021/09/28 13:38:36;;;;;;;3.78;3.13;;;;;;;18.59;56.41;100541.77;254696;1103;115905;-69
2021/09/28 13:43:40;;;;;;;11.68;3.83;;;;;;;18.55;57.04;100532.57;254363;1106;115481;-69
2021/09/28 13:48:44;;;;;;;5.67;4.23;;;;;;;18.56;57.36;100541.48;253959;1107;116613;-68
2021/09/28 13:53:51;;;;;;;3.00;2.78;;;;;;;18.57;57.48;100540.41;254145;1108;115955;-70
2021/09/28 13:59:03;;;;;;;5.23;2.90;;;;;;;18.58;56.95;100552.83;253748;1107;115818;-70
2021/09/28 14:04:08;;;;;;;5.40;2.88;;;;;;;18.58;57.38;100559.05;253951;1107;115767;-69
2021/09/28 14:09:17;;;;;;;3.80;3.00;;;;;;;18.61;56.78;100547.73;253633;1107;115107;-69
2021/09/28 14:14:29;;;;;;;4.25;2.98;;;;;;;18.83;57.81;100548.30;254137;1107;115518;-69
2021/09/28 14:19:36;;;;;;;5.85;3.20;;;;;;;19.08;57.67;100546.66;253605;1107;115631;-70
2021/09/28 14:24:53;;;;;;;3.57;3.27;;;;;;;19.31;57.08;100539.88;253223;1107;115553;-70
2021/09/28 14:30:06;;;;;;;4.15;3.33;;;;;;;19.42;56.78;100552.30;254004;1101;116496;-71
2021/09/28 14:35:12;;;;;;;2.60;2.40;;;;;;;19.48;55.92;100553.92;254369;1107;115886;-72
2021/09/28 14:40:17;;;;;;;3.08;2.80;;;;;;;19.46;55.58;100553.38;254796;1106;114936;-71
2021/09/28 14:45:29;;;;;;;5.58;2.78;;;;;;;19.43;55.20;100557.44;254054;1107;115658;-70
2021/09/28 14:50:34;;;;;;;3.98;3.15;;;;;;;19.30;55.09;100559.88;253426;1106;116052;-72
2021/09/28 14:55:40;;;;;;;3.43;2.93;;;;;;;19.10;55.11;100550.72;255740;1106;115699;-71
2021/09/28 15:00:45;;;;;;;3.20;2.90;;;;;;;18.93;54.84;100560.19;253230;1107;115669;-71
2021/09/28 15:05:50;;;;;;;9.50;2.68;;;;;;;18.76;54.92;100561.25;256397;1106;115415;-71
2021/09/28 15:10:59;;;;;;;6.98;3.25;;;;;;;18.54;55.29;100568.75;253690;1107;115466;-70
2021/09/28 15:16:03;;;;;;;4.30;2.73;;;;;;;18.34;55.67;100564.13;253725;1107;115251;-69
2021/09/28 15:21:07;;;;;;;3.10;2.75;;;;;;;18.18;55.48;100565.14;253196;1107;115898;-69
2021/09/28 15:26:10;;;;;;;16.40;2.85;;;;;;;17.99;55.92;100569.39;253559;1106;115358;-69
2021/09/28 15:31:23;;;;;;;4.80;2.90;;;;;;;17.77;55.60;100573.04;254388;1106;115359;-69
2021/09/28 15:36:31;;;;;;;6.05;3.10;;;;;;;17.52;56.02;100562.09;253144;1107;116498;-72
2021/09/28 15:41:34;;;;;;;4.30;2.73;;;;;;;17.30;56.02;100566.80;254643;1103;115678;-69
2021/09/28 15:46:39;;;;;;;8.25;3.18;;;;;;;17.03;56.28;100564.17;253330;1107;115604;-72
2021/09/28 15:51:45;;;;;;;7.23;3.00;;;;;;;16.79;56.52;100572.59;252931;1107;115966;-70
2021/09/28 15:56:54;;;;;;;4.28;3.55;;;;;;;16.59;57.05;100582.30;253154;1107;116063;-69
2021/09/28 16:02:10;;;;;;;12.65;4.05;;;;;;;16.38;57.71;100586.66;253539;1107;115859;-72
2021/09/28 16:07:17;;;;;;;17.68;3.18;;;;;;;16.21;57.54;100584.02;253588;1102;118277;-70
2021/09/28 16:12:21;;;;;;;4.68;3.25;;;;;;;16.00;58.82;100599.11;253355;1107;115418;-71
2021/09/28 16:17:25;;;;;;;7.78;3.55;;;;;;;15.73;58.67;100592.83;254760;1107;115345;-71
2021/09/28 16:22:29;;;;;;;6.60;4.97;;;;;;;15.42;58.82;100596.91;253358;1107;115149;-70
2021/09/28 16:27:32;;;;;;;16.98;5.43;;;;;;;15.13;59.41;100599.69;253216;1106;115568;-70
2021/09/28 16:32:39;;;;;;;11.13;4.43;;;;;;;14.86;59.65;100604.05;254705;1107;115524;-70
2021/09/28 16:37:44;;;;;;;8.25;6.80;;;;;;;14.68;59.90;100613.11;253620;1102;115570;-71
2021/09/28 16:42:50;;;;;;;11.08;8.23;;;;;;;14.49;60.51;100620.55;253167;1107;116565;-68
2021/09/28 16:47:54;;;;;;;12.13;7.08;;;;;;;14.35;60.55;100624.55;255883;1107;115377;-72
2021/09/28 16:52:57;;;;;;;14.23;8.13;;;;;;;14.16;61.29;100623.05;253942;1100;116361;-70
2021/09/28 16:58:01;;;;;;;9.80;6.80;;;;;;;14.01;61.32;100626.25;253704;1107;117491;-71
2021/09/28 17:03:04;;;;;;;13.00;7.45;;;;;;;13.84;61.48;100636.03;256155;1106;115057;-71
2021/09/28 17:08:10;;;;;;;14.23;7.33;;;;;;;13.66;62.10;100636.98;255632;1106;115740;-70
2021/09/28 17:13:21;;;;;;;15.45;7.75;;;;;;;13.48;62.50;100635.22;253919;1106;116084;-71
2021/09/28 17:18:24;;;;;;;13.43;9.83;;;;;;;13.37;62.38;100643.25;254248;1107;116658;-70
2021/09/28 17:23:31;;;;;;;12.77;8.23;;;;;;;13.25;63.15;100643.22;252877;1106;116191;-69
2021/09/28 17:28:36;;;;;;;19.30;13.98;;;;;;;13.09;62.96;100642.01;253218;1107;116228;-69
2021/09/28 17:33:53;;;;;;;26.30;14.95;;;;;;;12.90;63.29;100652.98;253004;1101;116256;-69
2021/09/28 17:38:56;;;;;;;26.80;15.10;;;;;;;12.74;63.93;100643.75;253427;1107;116670;-71
2021/09/28 17:43:59;;;;;;;29.80;17.45;;;;;;;12.58;64.21;100649.70;253787;1107;119241;-69
2021/09/28 17:49:01;;;;;;;38.80;19.13;;;;;;;12.44;63.72;100649.89;253451;1107;116312;-71
2021/09/28 17:54:05;;;;;;;31.73;20.65;;;;;;;12.33;64.57;100641.80;253619;1107;116376;-69
2021/09/28 17:59:12;;;;;;;28.78;18.38;;;;;;;12.23;64.57;100646.88;254022;1107;116039;-70
2021/09/28 18:04:16;;;;;;;19.78;13.80;;;;;;;12.10;65.31;100637.95;253373;1107;116122;-71
2021/09/28 18:09:20;;;;;;;17.68;10.88;;;;;;;11.98;64.85;100645.06;253709;1107;115814;-68
2021/09/28 18:14:26;;;;;;;18.10;12.30;;;;;;;11.82;65.55;100650.99;253985;1106;115452;-67
2021/09/28 18:19:32;;;;;;;23.78;11.50;;;;;;;11.74;65.48;100654.72;253248;1106;116342;-67
2021/09/28 18:24:42;;;;;;;12.98;8.05;;;;;;;11.71;65.87;100655.16;253283;1106;116217;-70
2021/09/28 18:29:48;;;;;;;8.75;5.55;;;;;;;11.71;65.68;100655.16;253205;1107;115275;-70
2021/09/28 18:34:57;;;;;;;8.03;5.10;;;;;;;11.71;66.26;100649.00;253057;1107;116508;-70
2021/09/28 18:40:20;;;;;;;6.80;5.53;;;;;;;11.72;66.06;100655.98;253678;1107;116772;-67
2021/09/28 18:45:32;;;;;;;5.85;4.58;;;;;;;11.70;66.26;100653.52;254552;1106;115601;-67
2021/09/28 18:50:36;;;;;;;11.78;5.43;;;;;;;11.72;65.76;100663.98;254843;1102;115355;-68
2021/09/28 18:55:46;;;;;;;7.78;4.95;;;;;;;11.71;65.88;100665.03;254047;1107;114873;-68
2021/09/28 19:01:10;;;;;;;7.65;5.63;;;;;;;11.72;66.11;100659.47;256171;1106;117365;-69
2021/09/28 19:11:29;;;;;;;7.45;4.45;;;;;;;11.73;65.62;100661.10;255576;1106;116728;-68
2021/09/28 19:16:39;;;;;;;3.78;3.48;;;;;;;11.71;65.47;100667.70;253595;1103;115342;-68
2021/09/28 19:21:45;;;;;;;9.63;5.48;;;;;;;11.68;65.28;100666.28;254709;1107;115149;-67
2021/09/28 19:26:52;;;;;;;6.50;4.98;;;;;;;11.64;65.50;100666.93;254770;1107;115941;-69
2021/09/28 19:32:01;;;;;;;7.45;5.53;;;;;;;11.61;65.61;100662.05;253484;1107;115707;-68
2021/09/28 19:37:04;;;;;;;6.03;5.43;;;;;;;11.60;66.09;100671.92;253586;1107;114937;-68
2021/09/28 19:42:31;;;;;;;5.00;4.05;;;;;;;11.55;65.89;100670.94;253889;1103;208602;-68
2021/09/28 19:47:37;;;;;;;7.85;5.18;;;;;;;11.48;66.17;100665.64;254346;1107;115156;-68
2021/09/28 19:52:43;;;;;;;6.80;4.28;;;;;;;11.41;65.78;100664.87;254509;1107;116413;-69
2021/09/28 19:58:00;;;;;;;8.03;5.53;;;;;;;11.34;65.95;100667.58;253502;1107;115862;-67
2021/09/28 20:03:29;;;;;;;4.55;4.08;;;;;;;11.31;66.08;100670.69;253453;1106;115191;-67
2021/09/28 20:41:07;;;;;;;7.13;5.10;;;;;;;11.04;66.29;100662.05;254268;1107;135932;-68
2021/09/28 20:46:12;;;;;;;5.40;4.45;;;;;;;11.02;66.52;100656.11;254782;1103;115471;-68
2021/09/28 20:51:17;;;;;;;5.37;4.43;;;;;;;10.97;66.56;100655.95;255612;1105;115681;-69
2021/09/28 20:56:24;;;;;;;8.20;5.10;;;;;;;10.92;66.72;100654.96;253665;1107;115186;-67
2021/09/28 21:01:29;;;;;;;7.87;5.27;;;;;;;10.87;66.52;100658.27;254690;1107;117211;-68
2021/09/28 21:06:33;;;;;;;5.53;4.65;;;;;;;10.86;66.54;100663.81;255498;1107;115806;-68
2021/09/28 21:11:37;;;;;;;10.43;7.43;;;;;;;10.83;67.20;100659.72;254166;1107;115746;-68
2021/09/28 21:16:43;;;;;;;5.63;5.08;;;;;;;10.75;66.91;100660.78;256169;1106;116199;-69
2021/09/28 21:21:49;;;;;;;5.00;4.43;;;;;;;10.69;66.73;100663.50;254308;1107;116710;-67
2021/09/28 21:26:54;;;;;;;8.20;5.28;;;;;;;10.64;66.52;100673.98;256255;1106;115555;-68
2021/09/28 21:32:09;;;;;;;9.35;5.83;;;;;;;10.62;67.13;100666.20;255778;1107;115837;-69
2021/09/28 21:37:15;;;;;;;7.27;5.90;;;;;;;10.60;66.82;100665.59;253956;1107;115980;-67
2021/09/28 21:42:18;;;;;;;9.75;5.90;;;;;;;10.58;66.96;100669.48;253652;1107;116284;-68
2021/09/28 21:47:21;;;;;;;8.63;5.20;;;;;;;10.54;67.12;100673.61;254527;1107;116236;-67
2021/09/28 21:52:28;;;;;;;7.15;6.45;;;;;;;10.49;66.86;100681.41;254760;1107;116330;-69
2021/09/28 21:57:32;;;;;;;6.10;5.00;;;;;;;10.41;67.47;100679.80;253817;1103;116485;-68
2021/09/28 22:02:35;;;;;;;8.30;6.30;;;;;;;10.34;67.10;100671.84;253622;1107;115928;-69
2021/09/28 22:07:40;;;;;;;9.80;6.40;;;;;;;10.33;67.66;100674.72;254071;1107;115986;-68
2021/09/28 22:12:45;;;;;;;5.78;5.20;;;;;;;10.29;67.21;100666.32;254372;1102;116146;-69
2021/09/28 22:17:52;;;;;;;5.98;5.30;;;;;;;10.24;67.41;100668.80;254258;1107;115884;-69
2021/09/28 22:22:55;;;;;;;8.65;5.25;;;;;;;10.14;67.46;100674.52;253757;1102;116269;-67
2021/09/28 22:27:59;;;;;;;13.80;7.45;;;;;;;10.05;67.55;100672.31;253511;1107;116378;-68
2021/09/28 22:33:03;;;;;;;5.93;5.35;;;;;;;10.00;67.82;100672.92;254548;1107;115949;-68
2021/09/28 22:38:08;;;;;;;8.25;6.93;;;;;;;9.96;68.37;100668.22;253759;1107;117560;-67
2021/09/28 22:43:12;;;;;;;10.08;6.80;;;;;;;9.92;67.94;100677.64;254823;1107;116626;-68
2021/09/28 22:48:16;;;;;;;7.67;6.30;;;;;;;9.88;68.21;100677.23;254595;1106;115607;-68
2021/09/28 22:53:20;;;;;;;8.90;6.53;;;;;;;9.83;68.46;100676.22;253985;1106;115172;-67
2021/09/28 22:58:26;;;;;;;8.15;6.28;;;;;;;9.78;68.26;100677.65;255531;1107;114801;-68
2021/09/28 23:03:30;;;;;;;9.05;6.83;;;;;;;9.76;68.26;100676.25;255099;1107;115455;-68
2021/09/28 23:08:36;;;;;;;7.15;6.20;;;;;;;9.71;68.52;100679.52;256128;1107;115749;-67
2021/09/28 23:13:40;;;;;;;11.30;7.90;;;;;;;9.66;69.02;100673.17;254199;1106;115408;-69
2021/09/28 23:18:44;;;;;;;7.33;6.55;;;;;;;9.61;69.14;100676.45;256038;1107;115295;-69
2021/09/28 23:23:47;;;;;;;15.25;8.53;;;;;;;9.60;69.09;100666.82;254861;1102;114996;-68
2021/09/28 23:28:50;;;;;;;7.53;6.23;;;;;;;9.59;68.74;100662.52;256257;1107;115436;-68
2021/09/28 23:33:55;;;;;;;10.03;7.33;;;;;;;9.53;68.62;100667.84;254475;1107;115879;-69
2021/09/28 23:39:00;;;;;;;7.63;5.78;;;;;;;9.46;69.41;100657.22;254675;1107;115669;-69
2021/09/28 23:44:07;;;;;;;7.63;5.58;;;;;;;9.41;69.60;100662.33;253389;1107;115481;-69
2021/09/28 23:49:10;;;;;;;28.83;6.88;;;;;;;9.39;69.14;100664.38;253145;1107;114666;-69
2021/09/28 23:54:17;;;;;;;8.55;6.95;;;;;;;9.38;69.71;100662.73;253696;1106;114891;-67